Time;durP1;ratioP1;P1;durP2;ratioP2;P2;SDS_P1;SDS_P2;PMS_P1;PMS_P2;Temp;Humidity;BMP_temperature;BMP_pressure;BME280_temperature;BME280_humidity;BME280_pressure;Samples;Min_cycle;Max_cycle;Signal;HPM_P1;HPM_P2
2024/04/11 00:00:17;;;;;;;12.95;8.03;;;;;;;14.81;62.44;100939.48;1812569;79;21025;-80
2024/04/11 00:02:45;;;;;;;12.82;8.13;;;;;;;14.77;62.61;100933.55;1812314;79;21032;-81
2024/04/11 00:05:14;;;;;;;16.02;7.75;;;;;;;14.75;62.86;100936.20;1792658;79;21056;-79
2024/04/11 00:07:43;;;;;;;16.37;8.20;;;;;;;14.74;63.07;100935.88;1812416;79;20993;-79
2024/04/11 00:10:12;;;;;;;15.40;8.30;;;;;;;14.72;62.98;100931.11;1797870;79;21286;-79
2024/04/11 00:12:41;;;;;;;15.60;8.55;;;;;;;14.71;63.24;100939.91;1797520;79;21041;-80
2024/04/11 00:15:10;;;;;;;14.80;8.20;;;;;;;14.70;63.24;100937.36;1797936;80;21041;-80
2024/04/11 00:17:39;;;;;;;13.85;8.08;;;;;;;14.68;63.35;100940.33;1798127;79;21069;-79
2024/04/11 00:20:08;;;;;;;17.98;8.53;;;;;;;14.66;63.59;100938.31;1797901;79;21069;-79
2024/04/11 00:22:37;;;;;;;14.03;8.60;;;;;;;14.64;63.74;100941.81;1798004;80;21037;-80
2024/04/11 00:25:05;;;;;;;18.82;8.35;;;;;;;14.61;63.69;100939.48;1798108;80;21080;-79
2024/04/11 00:27:33;;;;;;;13.00;8.25;;;;;;;14.58;63.84;100938.52;1797960;80;21591;-78
2024/04/11 00:30:02;;;;;;;18.02;8.20;;;;;;;14.57;64.10;100939.05;1797873;79;20998;-79
2024/04/11 00:32:31;;;;;;;16.37;8.75;;;;;;;14.54;64.15;100937.25;1798111;79;21434;-79
2024/04/11 00:35:04;;;;;;;15.08;8.58;;;;;;;14.51;64.13;100937.67;1798332;79;21017;-76
2024/04/11 00:37:33;;;;;;;21.48;8.70;;;;;;;14.52;64.09;100940.75;1797907;79;21074;-79
2024/04/11 00:40:01;;;;;;;13.88;8.08;;;;;;;14.50;64.01;100941.48;1798151;79;21034;-79
2024/04/11 00:42:30;;;;;;;19.55;8.60;;;;;;;14.48;64.12;100946.36;1798166;80;21045;-80
2024/04/11 00:44:58;;;;;;;19.02;8.50;;;;;;;14.46;64.16;100946.57;1798327;79;20981;-79
2024/04/11 00:47:28;;;;;;;17.50;8.45;;;;;;;14.44;64.39;100945.94;1797814;80;21005;-79
2024/04/11 00:49:57;;;;;;;15.93;8.53;;;;;;;14.44;64.37;100950.59;1798427;79;21029;-80
2024/04/11 00:52:26;;;;;;;12.53;8.43;;;;;;;14.41;64.37;100950.45;1798098;80;21025;-79
2024/04/11 00:54:54;;;;;;;17.95;8.55;;;;;;;14.39;64.16;100955.33;1798013;79;21461;-80
2024/04/11 00:57:24;;;;;;;16.67;8.30;;;;;;;14.37;64.15;100950.55;1798075;79;21025;-79
2024/04/11 00:59:52;;;;;;;15.23;8.48;;;;;;;14.33;64.29;100947.89;1798277;79;21057;-80
2024/04/11 01:02:20;;;;;;;19.65;8.85;;;;;;;14.34;64.31;100947.37;1798109;79;21018;-80
2024/04/11 01:04:49;;;;;;;17.35;8.65;;;;;;;14.34;64.26;100957.02;1798058;79;21442;-78
2024/04/11 01:07:17;;;;;;;19.25;8.90;;;;;;;14.32;64.37;100954.47;1798229;79;21072;-80
2024/04/11 01:09:46;;;;;;;14.95;8.00;;;;;;;14.29;64.38;100954.33;1798011;79;21053;-80
2024/04/11 01:12:18;;;;;;;12.73;7.80;;;;;;;14.26;64.41;100953.89;1798133;80;21084;-79
2024/04/11 01:14:50;;;;;;;15.80;7.60;;;;;;;14.23;64.46;100952.40;1798116;80;20978;-79
2024/04/11 01:17:21;;;;;;;13.70;8.78;;;;;;;14.21;64.42;100957.80;1798050;79;21014;-82
2024/04/11 01:19:49;;;;;;;14.45;7.95;;;;;;;14.18;64.56;100954.93;1798024;80;21442;-81
2024/04/11 01:22:21;;;;;;;12.13;8.00;;;;;;;14.17;64.96;100958.75;1798237;79;21026;-78
2024/04/11 01:24:52;;;;;;;14.45;7.05;;;;;;;14.15;65.08;100959.48;1798243;79;21072;-82
2024/04/11 01:27:21;;;;;;;13.25;7.22;;;;;;;14.15;64.94;100963.61;1798314;79;21018;-80
2024/04/11 01:29:51;;;;;;;11.22;7.08;;;;;;;14.13;64.80;100955.23;1798138;80;21493;-81
2024/04/11 01:32:19;;;;;;;11.95;6.53;;;;;;;14.15;64.66;100948.98;1798207;80;20986;-80
2024/04/11 01:34:47;;;;;;;13.95;7.33;;;;;;;14.16;64.24;100948.78;1798574;80;21141;-81
2024/04/11 01:37:16;;;;;;;15.03;7.10;;;;;;;14.17;63.79;100944.97;1798329;79;21033;-79
2024/04/11 01:39:44;;;;;;;13.50;8.05;;;;;;;14.17;64.06;100949.09;1798149;80;21469;-80
2024/04/11 01:42:14;;;;;;;14.50;7.12;;;;;;;14.17;64.06;100946.34;1798235;79;21045;-81
2024/04/11 01:44:42;;;;;;;14.00;7.50;;;;;;;14.16;64.04;100952.91;1798366;80;21029;-81
2024/04/11 01:47:14;;;;;;;15.50;7.58;;;;;;;14.15;63.75;100943.47;1798386;80;21002;-80
2024/04/11 01:49:44;;;;;;;9.78;6.80;;;;;;;14.15;63.61;100944.85;1798210;79;21481;-81
2024/04/11 01:52:13;;;;;;;11.33;6.80;;;;;;;14.13;63.18;100947.81;1798316;79;21006;-80
2024/04/11 01:54:42;;;;;;;15.45;7.58;;;;;;;14.12;62.59;100947.49;1798244;79;21049;-79
2024/04/11 01:57:10;;;;;;;9.85;6.15;;;;;;;14.12;62.73;100950.25;1798222;80;21076;-81
2024/04/11 01:59:41;;;;;;;13.90;6.75;;;;;;;14.11;62.58;100949.93;1798149;79;21053;-81
2024/04/11 02:02:09;;;;;;;13.20;7.25;;;;;;;14.10;62.21;100945.47;1798300;79;21013;-80
2024/04/11 02:04:38;;;;;;;12.73;6.80;;;;;;;14.08;62.11;100943.98;1775667;80;21034;-81
2024/04/11 02:07:07;;;;;;;15.83;6.70;;;;;;;14.05;62.55;100949.37;1798438;80;21014;-79
2024/04/11 02:09:35;;;;;;;14.47;6.47;;;;;;;14.03;62.52;100952.88;1797715;79;21496;-79
2024/04/11 02:12:03;;;;;;;14.83;7.10;;;;;;;14.00;62.25;100951.91;1811540;79;21503;-81
2024/04/11 02:14:32;;;;;;;11.95;6.78;;;;;;;13.99;62.89;100953.49;1812605;79;21444;-82
2024/04/11 02:17:00;;;;;;;13.65;5.75;;;;;;;13.96;62.94;100954.75;1812550;79;21021;-80
2024/04/11 02:19:30;;;;;;;11.43;5.97;;;;;;;13.95;62.41;100950.30;1792647;79;21040;-81
2024/04/11 02:21:58;;;;;;;13.60;6.90;;;;;;;13.94;62.03;100952.73;1812533;79;21045;-80
2024/04/11 02:24:27;;;;;;;12.82;6.58;;;;;;;13.94;61.82;100955.49;1812467;79;20985;-80
2024/04/11 02:26:55;;;;;;;10.95;6.20;;;;;;;13.92;61.67;100951.56;1812624;79;21065;-79
2024/04/11 02:29:24;;;;;;;10.82;5.75;;;;;;;13.90;61.67;100952.83;1812544;79;21024;-80
2024/04/11 02:31:52;;;;;;;11.85;7.05;;;;;;;13.90;61.57;100953.67;1812735;79;20985;-79
2024/04/11 02:34:20;;;;;;;18.30;6.50;;;;;;;13.91;61.53;100957.28;1812624;79;21001;-79
2024/04/11 02:36:49;;;;;;;13.13;6.20;;;;;;;13.92;61.54;100957.60;1812607;79;21064;-79
2024/04/11 02:39:19;;;;;;;10.30;5.80;;;;;;;13.91;61.84;100956.75;1812663;79;21013;-81
2024/04/11 02:41:47;;;;;;;11.43;6.42;;;;;;;13.90;61.93;100956.96;1812661;79;21017;-80
2024/04/11 02:44:17;;;;;;;13.32;6.42;;;;;;;13.90;61.77;100967.98;1812709;79;21009;-81
2024/04/11 02:46:46;;;;;;;10.93;6.20;;;;;;;13.90;61.44;100969.36;1812599;79;21009;-80
2024/04/11 02:49:15;;;;;;;15.60;6.40;;;;;;;13.90;61.28;100966.08;1812607;79;21053;-80
2024/04/11 02:51:43;;;;;;;26.87;6.97;;;;;;;13.89;61.32;100967.12;1812708;79;21001;-79
2024/04/11 02:54:13;;;;;;;17.48;6.42;;;;;;;13.86;61.20;100963.41;1812564;79;21080;-80
2024/04/11 02:56:43;;;;;;;16.70;6.75;;;;;;;13.87;61.48;100967.02;1812493;79;21072;-81
2024/04/11 02:59:12;;;;;;;12.10;6.28;;;;;;;13.84;61.37;100967.42;1812685;79;20978;-80
2024/04/11 03:01:41;;;;;;;11.08;5.85;;;;;;;13.85;61.59;100977.39;1812564;79;21060;-80
2024/04/11 03:04:10;;;;;;;12.88;6.00;;;;;;;13.83;61.37;100971.23;1812565;79;21100;-80
2024/04/11 03:06:39;;;;;;;12.03;5.90;;;;;;;13.81;61.53;100980.23;1812690;79;21072;-80
2024/04/11 03:09:09;;;;;;;13.78;6.17;;;;;;;13.79;61.44;100979.58;1812855;79;21009;-80
2024/04/11 03:11:40;;;;;;;17.65;6.10;;;;;;;13.77;61.16;100978.41;1796315;79;21021;-81
2024/04/11 03:14:08;;;;;;;15.03;6.10;;;;;;;13.75;60.97;100990.16;1787588;79;20978;-81
2024/04/11 03:16:37;;;;;;;12.23;5.78;;;;;;;13.72;60.81;100983.69;1787561;79;21065;-80
2024/04/11 03:19:06;;;;;;;13.80;5.67;;;;;;;13.73;61.10;100985.91;1787420;80;21446;-81
2024/04/11 03:21:34;;;;;;;13.98;5.45;;;;;;;13.72;60.75;100976.80;1788010;79;21030;-80
2024/04/11 03:24:03;;;;;;;9.60;5.40;;;;;;;13.74;60.48;100980.72;1787668;79;21010;-80
2024/04/11 03:26:32;;;;;;;12.45;5.45;;;;;;;13.77;60.42;100978.94;1787757;80;21426;-80
2024/04/11 03:29:00;;;;;;;9.80;5.35;;;;;;;13.78;60.27;100985.62;1787604;80;21017;-80
2024/04/11 03:31:30;;;;;;;10.63;5.75;;;;;;;13.82;60.12;100987.44;1787464;79;20978;-82
2024/04/11 03:33:59;;;;;;;13.25;5.33;;;;;;;13.84;60.13;100988.08;1787524;80;21053;-81
2024/04/11 03:36:28;;;;;;;15.75;6.30;;;;;;;13.85;60.21;100985.66;1787617;79;21041;-80
2024/04/11 03:38:56;;;;;;;34.38;6.78;;;;;;;13.86;60.01;100988.73;1765577;80;21034;-80
2024/04/11 03:41:24;;;;;;;13.55;6.08;;;;;;;13.85;60.16;100993.39;1787483;79;20974;-80
2024/04/11 03:43:54;;;;;;;20.60;5.87;;;;;;;13.86;60.14;100996.99;1787514;80;21478;-78
2024/04/11 03:46:23;;;;;;;15.23;5.92;;;;;;;13.87;60.11;101001.45;1787497;80;21049;-79
2024/04/11 03:48:58;;;;;;;13.62;6.05;;;;;;;13.88;59.87;101001.77;1787489;80;21017;-81
2024/04/11 03:51:27;;;;;;;17.23;6.65;;;;;;;13.89;59.76;101004.32;1787639;79;21003;-78
2024/04/11 03:53:56;;;;;;;13.72;6.70;;;;;;;13.93;59.66;101008.89;1787489;80;21093;-79
2024/04/11 03:56:27;;;;;;;14.90;7.12;;;;;;;13.98;59.84;101006.90;1787514;79;21056;-79
2024/04/11 03:58:56;;;;;;;17.35;6.47;;;;;;;14.01;59.87;101014.75;1787634;80;21010;-79
2024/04/11 04:01:26;;;;;;;13.08;6.33;;;;;;;14.02;59.91;101006.28;1787675;80;21442;-79
2024/04/11 04:04:03;;;;;;;14.50;6.17;;;;;;;14.06;60.25;101010.86;1765795;80;21485;-80
2024/04/11 04:06:34;;;;;;;20.82;7.22;;;;;;;14.11;60.80;101016.07;1787325;79;21177;-80
2024/04/11 04:09:07;;;;;;;16.20;6.78;;;;;;;14.19;61.35;101024.69;1787462;80;21030;-78
2024/04/11 04:11:36;;;;;;;14.30;6.78;;;;;;;14.25;61.70;101025.23;1792262;79;21500;-79
2024/04/11 04:14:08;;;;;;;36.40;8.38;;;;;;;14.33;62.19;101029.75;1798481;79;21061;-80
2024/04/11 04:16:35;;;;;;;20.77;7.00;;;;;;;14.43;62.64;101033.00;1797852;79;21034;-80
2024/04/11 04:19:04;;;;;;;12.33;6.30;;;;;;;14.52;63.31;101030.37;1797927;79;21057;-79
2024/04/11 04:21:34;;;;;;;10.48;5.97;;;;;;;14.63;63.77;101031.14;1776237;80;21018;-79
2024/04/11 04:24:05;;;;;;;14.20;6.37;;;;;;;14.74;63.87;101033.28;1776657;80;21042;-79
2024/04/11 04:26:34;;;;;;;13.68;6.42;;;;;;;14.85;63.79;101035.95;1798044;80;21019;-78
2024/04/11 04:29:03;;;;;;;11.18;6.37;;;;;;;14.95;63.78;101034.16;1798351;80;21081;-81
2024/04/11 04:31:32;;;;;;;15.98;7.00;;;;;;;15.05;63.71;101032.71;1798151;80;20982;-79
2024/04/11 04:34:03;;;;;;;12.65;6.53;;;;;;;15.13;63.46;101031.65;1798015;80;21017;-80
2024/04/11 04:36:34;;;;;;;14.47;7.15;;;;;;;15.20;63.37;101032.50;1797964;80;21053;-80
2024/04/11 04:39:05;;;;;;;14.78;7.00;;;;;;;15.26;63.34;101038.55;1798058;80;21037;-79
2024/04/11 04:41:34;;;;;;;14.00;7.72;;;;;;;15.32;63.38;101048.73;1798059;79;21060;-79
2024/04/11 04:44:03;;;;;;;16.25;7.80;;;;;;;15.36;63.53;101062.44;1798132;80;20993;-80
2024/04/11 04:46:32;;;;;;;13.38;7.22;;;;;;;15.41;63.65;101059.89;1798158;80;21041;-78
2024/04/11 04:49:03;;;;;;;14.30;7.42;;;;;;;15.46;63.81;101060.63;1798054;80;21001;-78
2024/04/11 04:51:32;;;;;;;29.50;7.72;;;;;;;15.51;63.94;101061.69;1798017;80;21509;-79
2024/04/11 04:54:01;;;;;;;17.92;7.60;;;;;;;15.59;63.90;101062.03;1798190;79;20986;-80
2024/04/11 04:56:32;;;;;;;16.30;7.03;;;;;;;15.68;63.91;101075.12;1797717;79;21034;-80
2024/04/11 04:59:02;;;;;;;12.10;6.92;;;;;;;15.79;63.70;101071.69;1798175;80;21061;-80
2024/04/11 05:01:33;;;;;;;14.38;6.90;;;;;;;15.87;63.50;101070.08;1776542;80;21037;-79
2024/04/11 05:04:01;;;;;;;18.02;7.15;;;;;;;15.91;63.34;101075.49;1798096;80;21457;-79
2024/04/11 05:06:32;;;;;;;13.18;7.97;;;;;;;15.93;63.31;101072.52;1797970;79;21065;-79
2024/04/11 05:09:00;;;;;;;13.48;7.22;;;;;;;15.94;63.32;101075.06;1798196;80;21037;-79
2024/04/11 05:11:31;;;;;;;12.03;7.62;;;;;;;15.96;63.34;101070.16;1798118;79;21053;-79
2024/04/11 05:14:07;;;;;;;12.95;7.70;;;;;;;15.98;63.42;101076.33;1798123;80;20990;-79
2024/04/11 05:16:30;;;;;;;20.08;8.08;;;;;;;16.00;63.46;101073.34;1775845;77;21033;-81
2024/04/11 05:18:58;;;;;;;14.40;8.05;;;;;;;16.02;63.59;101081.73;1798081;79;21061;-78
2024/04/11 05:21:27;;;;;;;14.05;7.67;;;;;;;16.04;63.72;101085.13;1797962;80;21434;-79
2024/04/11 05:23:55;;;;;;;14.05;7.58;;;;;;;16.04;63.81;101076.84;1798056;80;21009;-80
2024/04/11 05:26:26;;;;;;;14.65;7.75;;;;;;;16.07;63.95;101076.41;1776142;80;21547;-78
2024/04/11 05:28:57;;;;;;;14.35;7.90;;;;;;;16.07;64.13;101085.23;1798111;80;21013;-79
2024/04/11 05:31:28;;;;;;;12.85;7.10;;;;;;;16.07;64.28;101078.32;1797975;80;21002;-78
2024/04/11 05:34:06;;;;;;;15.38;7.47;;;;;;;16.10;64.40;101077.89;1798032;79;21523;-79
2024/04/11 05:36:29;;;;;;;12.47;7.87;;;;;;;16.11;64.54;101080.43;1797603;79;21014;-80
2024/04/11 05:38:58;;;;;;;12.60;7.47;;;;;;;16.15;64.65;101084.46;1797924;79;21097;-80
2024/04/11 05:41:27;;;;;;;14.85;7.20;;;;;;;16.17;64.78;101082.86;1798007;79;21046;-80
2024/04/11 05:43:58;;;;;;;13.53;7.50;;;;;;;16.17;64.82;101086.47;1798266;79;21013;-81
2024/04/11 05:46:27;;;;;;;16.65;8.48;;;;;;;16.21;64.82;101088.80;1776295;80;21017;-79
2024/04/11 05:48:56;;;;;;;11.70;7.47;;;;;;;16.21;64.94;101089.65;1798121;80;21014;-79
2024/04/11 05:51:24;;;;;;;13.60;7.67;;;;;;;16.21;64.96;101088.27;1798205;79;21100;-80
2024/04/11 05:53:53;;;;;;;14.55;8.00;;;;;;;16.20;65.09;101082.42;1798270;80;21010;-80
2024/04/11 05:56:21;;;;;;;15.60;8.78;;;;;;;16.22;65.14;101087.73;1776414;80;21009;-80
2024/04/11 05:58:51;;;;;;;10.98;7.45;;;;;;;16.23;65.23;101096.34;1797915;80;21125;-80
2024/04/11 06:01:20;;;;;;;15.23;8.75;;;;;;;16.24;65.34;101092.52;1798314;80;21053;-80
2024/04/11 06:03:54;;;;;;;18.42;8.60;;;;;;;16.28;65.36;101097.95;1798085;79;21038;-80
2024/04/11 06:06:22;;;;;;;15.50;7.58;;;;;;;16.28;65.37;101102.95;1797934;80;21487;-81
2024/04/11 06:08:51;;;;;;;13.70;8.35;;;;;;;16.31;65.32;101105.81;1798306;80;21033;-78
2024/04/11 06:11:21;;;;;;;13.40;7.40;;;;;;;16.35;65.33;101102.93;1799746;79;21065;-82
2024/04/11 06:13:53;;;;;;;18.00;8.23;;;;;;;16.38;65.34;101105.26;1812456;79;21055;-79
2024/04/11 06:16:21;;;;;;;12.15;7.87;;;;;;;16.43;65.40;101108.22;1812394;79;21440;-79
2024/04/11 06:18:54;;;;;;;13.55;8.88;;;;;;;16.47;65.43;101107.56;1812582;79;21460;-82
2024/04/11 06:21:31;;;;;;;16.07;8.08;;;;;;;16.51;65.38;101115.42;1812570;79;21071;-81
2024/04/11 06:23:51;;;;;;;15.83;8.10;;;;;;;16.52;65.32;101112.44;1811403;79;21013;-79
2024/04/11 06:26:20;;;;;;;13.45;8.00;;;;;;;16.54;65.30;101121.36;1812667;79;21004;-79
2024/04/11 06:28:49;;;;;;;16.10;8.38;;;;;;;16.56;65.34;101110.92;1792592;79;21033;-79
2024/04/11 06:31:18;;;;;;;15.98;8.95;;;;;;;16.56;65.36;101120.61;1812656;79;21009;-81
2024/04/11 06:33:48;;;;;;;16.55;8.25;;;;;;;16.60;65.50;101119.09;1812511;79;21060;-77
2024/04/11 06:36:17;;;;;;;13.53;8.30;;;;;;;16.62;65.54;101115.58;1812567;79;21504;-81
2024/04/11 06:38:48;;;;;;;12.93;7.92;;;;;;;16.64;65.47;101121.74;1812498;79;21830;-80
2024/04/11 06:41:22;;;;;;;13.48;8.33;;;;;;;16.67;65.54;101125.48;1792909;79;21025;-80
2024/04/11 06:43:51;;;;;;;11.88;7.67;;;;;;;16.70;65.63;101125.05;1812601;79;21016;-78
2024/04/11 06:46:21;;;;;;;14.20;8.25;;;;;;;16.73;65.74;101125.98;1812592;79;21005;-80
2024/04/11 06:48:53;;;;;;;14.00;7.95;;;;;;;16.76;65.71;101128.84;1812470;79;21522;-80
2024/04/11 06:51:20;;;;;;;13.43;8.10;;;;;;;16.80;65.77;101131.48;1812139;79;21072;-79
2024/04/11 06:53:49;;;;;;;12.13;8.10;;;;;;;16.86;65.76;101128.37;1812507;79;21441;-80
2024/04/11 06:56:22;;;;;;;13.08;7.95;;;;;;;16.92;65.73;101133.05;1812609;79;21044;-80
2024/04/11 06:58:49;;;;;;;13.05;7.62;;;;;;;17.00;65.62;101135.56;1812032;79;21053;-80
2024/04/11 07:01:18;;;;;;;13.68;7.35;;;;;;;17.08;65.59;101147.76;1812497;79;21064;-80
2024/04/11 07:03:53;;;;;;;20.27;8.65;;;;;;;17.21;65.54;101139.36;1812393;79;21009;-80
2024/04/11 07:08:49;;;;;;;12.80;8.13;;;;;;;17.93;64.51;101135.20;1812574;79;21040;-81
2024/04/11 07:11:32;;;;;;;17.07;8.25;;;;;;;18.38;63.48;101147.45;1812565;79;21052;-79
2024/04/11 07:13:59;;;;;;;16.40;9.73;;;;;;;18.83;62.27;101152.16;1812281;79;21058;-80
2024/04/11 07:16:32;;;;;;;13.58;9.75;;;;;;;19.25;60.26;101149.45;1812425;79;21470;-80
2024/04/11 07:19:02;;;;;;;11.85;8.20;;;;;;;19.44;59.88;101149.69;1793215;79;21029;-82
2024/04/11 07:21:34;;;;;;;18.55;8.55;;;;;;;19.48;59.12;101145.89;1812607;79;21044;-79
2024/04/11 07:24:03;;;;;;;14.07;9.10;;;;;;;19.41;59.10;101149.31;1812759;79;21110;-79
2024/04/11 07:26:33;;;;;;;12.25;8.70;;;;;;;19.36;59.25;101146.41;1812330;79;21500;-78
2024/04/11 07:29:03;;;;;;;18.10;9.55;;;;;;;19.35;59.48;101151.66;1812712;79;21057;-79
2024/04/11 07:31:33;;;;;;;11.55;8.45;;;;;;;19.35;59.39;101145.56;1812358;79;21099;-79
2024/04/11 07:34:02;;;;;;;16.67;9.45;;;;;;;19.35;59.55;101144.17;1812527;79;21457;-79
2024/04/11 07:36:38;;;;;;;14.90;9.88;;;;;;;19.47;59.55;101144.20;1812111;79;21475;-78
2024/04/11 07:39:04;;;;;;;12.50;7.90;;;;;;;19.73;59.17;101155.48;1812361;79;21495;-78
2024/04/11 07:41:44;;;;;;;14.10;7.92;;;;;;;20.07;57.93;101151.03;1792851;79;21000;-78
2024/04/11 07:44:05;;;;;;;12.28;7.87;;;;;;;20.40;57.25;101154.09;1811516;79;21064;-79
2024/04/11 07:46:34;;;;;;;11.28;7.83;;;;;;;20.70;56.21;101153.91;1812560;79;21057;-80
2024/04/11 07:49:07;;;;;;;17.65;7.78;;;;;;;21.08;55.70;101158.05;1810915;79;21056;-78
2024/04/11 07:51:41;;;;;;;16.17;8.43;;;;;;;21.49;54.81;101153.59;1792456;79;21460;-78
2024/04/11 07:54:13;;;;;;;13.70;7.62;;;;;;;;;;1811977;79;21053;-77
2024/04/11 07:56:36;;;;;;;11.00;7.40;;;;;;;22.06;52.48;101162.37;1811931;79;21657;-79
2024/04/11 07:59:06;;;;;;;11.73;7.87;;;;;;;22.26;52.28;101157.68;1812586;79;21021;-82
2024/04/11 08:01:35;;;;;;;14.23;7.83;;;;;;;22.53;51.59;101164.21;1792418;79;21008;-75
2024/04/11 08:04:06;;;;;;;13.90;7.62;;;;;;;22.83;50.71;101157.39;1772500;80;21063;-84
2024/04/11 08:06:35;;;;;;;10.78;7.42;;;;;;;23.09;50.06;101159.37;1770609;79;21031;-86
2024/04/11 08:09:07;;;;;;;12.85;7.25;;;;;;;23.38;48.79;101159.97;1810436;79;21015;-84
2024/04/11 08:11:36;;;;;;;9.58;7.42;;;;;;;23.62;48.48;101150.19;1740853;82;21033;-84
2024/04/11 08:14:04;;;;;;;12.58;6.42;;;;;;;23.88;47.77;101145.66;1770280;80;21529;-84
2024/04/11 08:16:33;;;;;;;9.45;6.87;;;;;;;24.04;47.30;101155.01;1797806;79;21036;-82
2024/04/11 08:19:02;;;;;;;11.55;6.85;;;;;;;24.28;46.60;101155.52;1797677;80;21500;-83
2024/04/11 08:21:35;;;;;;;10.95;6.80;;;;;;;24.49;46.16;101150.88;1798003;80;21082;-84
2024/04/11 08:24:05;;;;;;;9.93;6.75;;;;;;;24.61;46.01;101157.94;1763614;80;21435;-85
2024/04/11 08:26:33;;;;;;;16.05;7.40;;;;;;;24.78;45.64;101160.58;1731418;82;21542;-87
2024/04/11 08:29:03;;;;;;;13.32;8.70;;;;;;;24.91;44.88;101153.05;1749315;82;21031;-88
2024/04/11 08:31:34;;;;;;;12.63;6.67;;;;;;;24.91;44.81;101154.45;1720943;82;21600;-85
2024/04/11 08:34:02;;;;;;;11.45;6.78;;;;;;;24.94;44.77;101158.67;1749290;82;21050;-88
2024/04/11 08:36:31;;;;;;;11.33;6.97;;;;;;;25.13;44.09;101161.84;1781106;80;20987;-84
2024/04/11 08:39:04;;;;;;;11.40;6.40;;;;;;;25.13;44.09;101161.84;1781012;80;21054;-86
2024/04/11 08:41:31;;;;;;;11.35;6.28;;;;;;;25.21;44.37;101166.92;1740719;82;21020;-85
2024/04/11 08:44:00;;;;;;;11.20;6.00;;;;;;;25.27;44.13;101163.00;1754406;82;21053;-86
2024/04/11 08:46:30;;;;;;;16.48;6.70;;;;;;;25.28;43.67;101156.28;1741725;82;21029;-84
2024/04/11 08:48:58;;;;;;;14.73;7.37;;;;;;;25.25;43.82;101159.63;1753372;81;21515;-84
2024/04/11 08:51:28;;;;;;;11.90;6.45;;;;;;;25.24;43.97;101165.80;1740738;81;21080;-81
2024/04/11 08:53:57;;;;;;;9.43;5.90;;;;;;;25.26;43.57;101169.73;1753359;82;21122;-85
2024/04/11 08:56:28;;;;;;;8.80;6.22;;;;;;;25.21;43.45;101169.16;1741026;82;21158;-85
2024/04/11 08:58:56;;;;;;;12.03;6.08;;;;;;;25.20;43.64;101161.87;1753258;82;21042;-83
2024/04/11 09:01:25;;;;;;;6.92;5.50;;;;;;;25.12;43.47;101165.22;1740772;82;21056;-85
2024/04/11 09:03:54;;;;;;;12.28;5.55;;;;;;;24.95;43.33;101161.76;1756993;81;21095;-88
2024/04/11 09:06:24;;;;;;;14.13;6.83;;;;;;;24.79;43.85;101167.87;1712190;81;21479;-84
2024/04/11 09:08:54;;;;;;;12.75;6.08;;;;;;;24.65;44.13;101162.45;1764856;81;21022;-84
2024/04/11 09:11:25;;;;;;;16.00;6.90;;;;;;;24.56;44.47;101169.13;1764862;81;21042;-83
2024/04/11 09:13:58;;;;;;;9.45;5.40;;;;;;;24.44;44.30;101164.30;1764192;81;21011;-83
2024/04/11 09:16:28;;;;;;;10.38;5.60;;;;;;;24.25;44.34;101170.03;1768492;80;20991;-84
2024/04/11 09:19:05;;;;;;;8.53;5.55;;;;;;;24.11;45.07;101166.85;1749450;81;21451;-86
2024/04/11 09:21:33;;;;;;;9.25;5.22;;;;;;;24.02;45.27;101168.44;1761355;80;21041;-84
2024/04/11 09:24:10;;;;;;;8.50;5.37;;;;;;;23.87;45.78;101164.96;1786236;80;20987;-86
2024/04/11 09:26:37;;;;;;;10.35;5.70;;;;;;;23.81;46.18;101176.37;1786979;80;20971;-82
2024/04/11 09:29:11;;;;;;;9.83;5.72;;;;;;;23.77;46.33;101174.67;1786419;80;20995;-84
2024/04/11 09:31:38;;;;;;;9.60;5.50;;;;;;;23.70;46.14;101178.25;1786115;79;21022;-83
2024/04/11 09:34:11;;;;;;;7.60;5.55;;;;;;;23.64;46.73;101175.11;1764924;80;20999;-84
2024/04/11 09:36:52;;;;;;;12.58;5.42;;;;;;;23.59;46.52;101166.12;1787326;80;21676;-81
2024/04/11 09:42:17;;;;;;;10.82;5.53;;;;;;;23.54;46.91;101180.02;1786973;80;21040;-83
2024/04/11 09:44:46;;;;;;;11.22;5.08;;;;;;;23.51;46.78;101173.56;1785320;80;21057;-83
2024/04/11 09:47:31;;;;;;;8.25;5.40;;;;;;;23.46;46.95;101180.50;1785392;80;21050;-84
2024/04/11 09:50:04;;;;;;;8.10;5.28;;;;;;;23.42;46.74;101177.10;1785209;80;20999;-84
2024/04/11 09:52:37;;;;;;;8.78;5.20;;;;;;;23.33;47.08;101193.48;1785361;80;21054;-87
2024/04/11 09:55:07;;;;;;;8.65;5.10;;;;;;;23.27;46.95;101184.75;1785143;80;20995;-88
2024/04/11 09:57:38;;;;;;;10.03;5.00;;;;;;;23.15;47.26;101182.65;1785865;80;21010;-83
2024/04/11 10:00:22;;;;;;;12.00;4.80;;;;;;;23.05;47.48;101187.02;1785615;80;21026;-88
2024/04/11 10:02:41;;;;;;;12.35;5.83;;;;;;;22.96;47.66;101195.58;1784294;80;21023;-84
2024/04/11 10:05:16;;;;;;;12.98;5.85;;;;;;;22.96;47.89;101187.19;1785554;80;21070;-87
2024/04/11 10:07:41;;;;;;;10.32;5.40;;;;;;;23.04;48.09;101188.12;1785072;80;21018;-86
2024/04/11 10:10:25;;;;;;;10.23;5.70;;;;;;;23.13;47.76;101196.05;1763998;80;21434;-87
2024/04/11 10:13:00;;;;;;;10.88;4.97;;;;;;;23.13;47.34;101192.70;1778572;79;21146;-78
2024/04/11 10:15:34;;;;;;;11.65;4.53;;;;;;;23.11;47.38;101185.13;1803131;79;21460;-83
2024/04/11 10:18:08;;;;;;;10.65;4.65;;;;;;;23.15;47.40;101184.89;1802759;79;21067;-87
2024/04/11 10:21:01;;;;;;;13.95;4.90;;;;;;;23.17;47.41;101188.83;1803402;79;21071;-89
2024/04/11 10:23:28;;;;;;;8.75;4.22;;;;;;;23.17;47.38;101193.86;1802242;79;21004;-86
2024/04/11 10:25:59;;;;;;;10.90;6.12;;;;;;;23.17;47.21;101188.83;1803311;79;21028;-88
2024/04/11 10:28:41;;;;;;;9.73;4.55;;;;;;;23.14;47.33;101180.96;1803367;79;21436;-87
2024/04/11 10:31:08;;;;;;;9.05;4.50;;;;;;;23.18;47.50;101190.52;1801949;79;21624;-87
2024/04/11 10:33:44;;;;;;;7.67;4.12;;;;;;;23.17;47.25;101184.63;1802598;79;21012;-84
2024/04/11 10:36:09;;;;;;;9.70;4.12;;;;;;;23.15;47.21;101186.84;1802438;79;21059;-83
2024/04/11 10:38:38;;;;;;;13.88;4.30;;;;;;;23.15;46.76;101184.05;1803366;79;21451;-89
2024/04/11 10:41:08;;;;;;;7.85;4.12;;;;;;;23.05;46.72;101181.43;1781258;79;21043;-88
2024/04/11 10:43:37;;;;;;;8.58;4.37;;;;;;;23.02;46.86;101186.70;1771218;81;21139;-83
2024/04/11 10:46:08;;;;;;;8.85;4.30;;;;;;;23.01;46.76;101194.23;1755769;80;21063;-87
2024/04/11 10:48:40;;;;;;;9.55;4.20;;;;;;;23.02;46.50;101193.69;1755402;82;21207;-88
2024/04/11 10:51:10;;;;;;;6.15;4.40;;;;;;;23.00;46.36;101188.91;1733708;82;21058;-87
2024/04/11 10:53:47;;;;;;;7.05;3.65;;;;;;;23.00;46.57;101181.92;1755519;82;21093;-87
2024/04/11 10:56:23;;;;;;;6.42;3.60;;;;;;;22.99;46.28;101190.86;1756079;80;21054;-85
2024/04/11 10:58:55;;;;;;;9.73;3.67;;;;;;;22.96;46.33;101189.14;1734762;82;21007;-89
2024/04/11 11:01:27;;;;;;;8.13;3.90;;;;;;;22.93;46.41;101190.50;1755788;82;21065;-86
2024/04/11 11:03:59;;;;;;;8.73;3.75;;;;;;;22.94;46.64;101199.73;1755777;82;21415;-87
2024/04/11 11:06:39;;;;;;;6.75;3.42;;;;;;;22.91;46.40;101195.52;1755763;82;21065;-85
2024/04/11 11:09:16;;;;;;;5.58;3.30;;;;;;;22.89;46.53;101193.53;1755593;81;21058;-86
2024/04/11 11:11:44;;;;;;;8.88;4.12;;;;;;;22.90;46.48;101191.03;1755449;82;21050;-79
2024/04/11 11:14:20;;;;;;;10.58;3.60;;;;;;;22.88;46.27;101191.84;1771983;80;21114;-87
2024/04/11 11:16:51;;;;;;;7.92;3.67;;;;;;;22.86;46.49;101193.20;1780368;80;21035;-87
2024/04/11 11:19:22;;;;;;;8.40;3.33;;;;;;;22.88;46.52;101197.43;1784649;80;21046;-84
2024/04/11 11:21:51;;;;;;;6.20;3.87;;;;;;;22.91;46.14;101194.11;1785283;80;21074;-81
2024/04/11 11:24:24;;;;;;;8.73;3.52;;;;;;;22.91;46.09;101197.46;1763756;80;21058;-80
2024/04/11 11:26:58;;;;;;;5.60;3.40;;;;;;;22.87;46.11;101202.73;1764383;80;20995;-80
2024/04/11 11:29:29;;;;;;;16.32;5.47;;;;;;;22.87;45.98;101203.28;1785096;80;20999;-79
2024/04/11 11:32:02;;;;;;;12.33;4.30;;;;;;;22.86;45.90;101198.80;1785048;80;21431;-78
2024/04/11 11:34:35;;;;;;;9.15;4.53;;;;;;;22.84;45.63;101190.67;1785022;80;20999;-81
2024/04/11 11:37:04;;;;;;;7.30;3.37;;;;;;;22.85;45.91;101189.56;1785354;80;21022;-83